Andersontown, Pennsylvania
Current Conditions -  °F | °C
As of 4:56 PM on Friday 28 Nov 2014 (Local Time) from KCXY Reporting Station
Clear Clear  
Wind Chill: 26°   Ceiling: Unl
Heat Index: 31°   Visibility: 10mi
Dew Point: 15°   Wind: 5mph
Humidity: 52%   Direction: 270°W
Pressure: 30.25"   Gusts: NA
Location:  40.208°N, 77.0098°W
Report Text: KCXY 282156Z 27004KT 10SM CLR M01/M09 A3025 RMK AO2 SLP250 T10061094
Loading
Personal Weather Stations






























Interactive Weather Map New forecast layout! Learn more

10-Day Weather Forecast

Advertisements
Track Severe Weather on mobile